Main page
METAR-TAF:

METAR-TAF

Airports :

Pori Airport

Pori, Finland

latitude: 61-28N, longitude: 021-48E, elevation: 13 m

Current weather observation

The report was made 32 minutes ago, at 11:20 UTC
Wind 6 kt from the West/Southwest, varying between Southwest and Northwest
Temperature 20°C
Humidity 83%
Pressure 1013 hPa
Visibility 10 km or more
Few clouds at a height of 900 ft
Broken clouds at a height of 4100 ft

METAR: EFPO 121120Z AUTO 25006KT 230V310 9999 FEW009 BKN041 20/17 Q1013

Time: 14:52 (11:52 UTC)


TAF: missing

Weather observations and forecasts of more than 4000 airports (METAR and TAF reports).

The available stations are represented by yellow and red dots on the map.

Hover mouse over dot to see the name of the station.

Then click to see weather observations and forecasts.

To change the map : click on the green buttons with a black cross to zoom in, on the green button with a dash to zoom out, or on the green arrows for adjacent maps.


METAR-TAF: